Terminal Aerodrome Forecast
Issued by NWS St Louis, MO

Home | Current Version | Previous Version | Graphics & Text | Print | Product List | Glossary On
Versions: 1 2 3 4 5 6 7 8 9 10 11 12 13 14 15 16 17 18 19 20 21 22 23 24 25 26 27
000
FTUS43 KLSX 221100
TAFSTL
TAF
KSTL 221126Z 2212/2318 18005KT P6SM SCT015 BKN050 WS020/21050KT
     FM221400 19012KT P6SM SCT025 OVC035
     FM230900 18010KT 5SM -SHRA SCT009 OVC025=

USA.gov is the U.S. government's official web portal to all federal, state and local government web resources and services.